Airfield :
LOGIN :

Register | Disclaimer

   EN    FR    IT 

 










Legend :    VFR   Marginal VFR   IFR   Intensive IFR   Very Intensive IFR
Visi :
Ceiling :
>= 8 km
>= 3000ft
5 to 8 km
1000 to 3000 ft
1500m to 5 km
500 to 1000 ft
800 to 1500m
200 to 500 ft
< 800m
< 200 ft
Symbols :   Thunderstorms  Fog  Heavy snow  Heavy precipitations  Wind > 20 kt
SIGMETs :     Misc.  Thunderstorms  Icing  Turbulence  Mountain Waves  Volcanic Ashes







- Airport Elevation : 25 ft
- IATA code : TPS


LICT - Vincenzo Florio Trapani

CURRENT METAR :
  • 131955Z 15009KT 9999 FEW010 13/12 Q1011 RMK SCT SCT100 VIS MIN 9999 WIND THR13 13010KT BLU

EXPIRED METARs :
  • 131855Z 15010KT 9999 FEW020 14/12 Q1011 RMK SCT SCT100 VIS MIN 9999 WIND THR13 14008KT BLU
  • 131755Z 13006KT 9999 SCT030 14/12 Q1011 RMK OVC BKN120 VIS MIN 9999 WIND THR13 12006KT BLU

TAF TAF LICT
Valid from the 13 at 18:00 until the 14 at 03:00 UTC


131700Z 1318/1403 16008KT 9999 SCT025
No reported NOTAMs for that airfield.
2 SIGMETs reported for the Roma FIR (LIRR) :
 
Embedded thunderstorms
LIRR SIGMET 13 VALID 131913/132313 LIIB
LIRR ROMA FIR EMBD TS OBS WI N4120 E00815 - N4100 E00803 - N3948 E00803 - N3946 E01009 - N4113 E01009 - N4120 E00815 TOP FL360 MOV ENE WKN=
Severe icing
LIRR SIGMET 11 VALID 131800/132000 LIIB
LIRR ROMA FIR SEV ICE FCST WI N4340 E01107 - N4126 E01414 - N4254 E01305 - N4329 E01316 - N4340 E01107 FL040/140 STNR NC=



MET'MAP, your aeronautical weather chart ! - Copyright ORBIFLY December 2007 - Disclaimer

ORBIFLY MET'MAP TEAM :

Programming & Development : Alexandra Zaïnal
Concept & Development : Baudouin d'Aumeries
Co-Development & Prog : Marc-Olivier Méhu
Technical & hardware support : Manuel Goepfert

Contact : metmap@orbifly.com




SOURCES & CREDITS :

   NOAA